createdAt,value
2022-10-09T00:01:08.680Z,2.33
2022-10-09T00:03:36.316Z,1.80
2022-10-09T00:06:04.069Z,2.28
2022-10-09T00:08:30.952Z,2.45
2022-10-09T00:10:57.820Z,2.28
2022-10-09T00:13:24.734Z,2.08
2022-10-09T00:15:51.791Z,2.58
2022-10-09T00:18:18.946Z,2.40
2022-10-09T00:20:47.371Z,2.30
2022-10-09T00:23:16.542Z,2.40
2022-10-09T00:26:00.480Z,2.22
2022-10-09T00:28:29.422Z,2.20
2022-10-09T00:30:56.477Z,2.35
2022-10-09T00:33:23.240Z,2.80
2022-10-09T00:35:50.053Z,2.00
2022-10-09T00:38:17.054Z,2.65
2022-10-09T00:40:43.996Z,2.53
2022-10-09T00:43:16.926Z,2.50
2022-10-09T00:45:49.173Z,2.92
2022-10-09T00:48:17.078Z,2.90
2022-10-09T00:50:55.860Z,3.15
2022-10-09T00:53:24.625Z,2.83
2022-10-09T00:55:51.325Z,3.00
2022-10-09T00:58:18.858Z,3.00
2022-10-09T01:00:45.586Z,2.97
2022-10-09T01:03:12.388Z,2.55
2022-10-09T01:05:58.018Z,3.28
2022-10-09T01:08:36.424Z,3.42
2022-10-09T01:11:39.495Z,2.90
2022-10-09T01:14:18.915Z,2.88
2022-10-09T01:16:53.732Z,3.20
2022-10-09T01:19:40.435Z,3.03
2022-10-09T01:22:44.877Z,3.28
2022-10-09T01:25:24.149Z,2.80
2022-10-09T01:27:50.855Z,2.90
2022-10-09T01:30:17.823Z,2.80
2022-10-09T01:32:47.449Z,2.80
2022-10-09T01:35:15.529Z,2.90
2022-10-09T01:37:44.089Z,3.10
2022-10-09T01:40:12.287Z,2.60
2022-10-09T01:42:39.300Z,3.15
2022-10-09T01:45:06.611Z,3.17
2022-10-09T01:47:33.485Z,3.50
2022-10-09T01:50:23.249Z,2.78
2022-10-09T01:52:54.096Z,3.17
2022-10-09T01:55:58.576Z,3.13
2022-10-09T01:58:28.210Z,3.00
2022-10-09T02:01:14.203Z,3.28
2022-10-09T02:03:43.241Z,3.30
2022-10-09T02:06:12.093Z,3.25
2022-10-09T02:08:39.812Z,2.72
2022-10-09T02:11:07.131Z,3.00
2022-10-09T02:13:34.706Z,2.60
2022-10-09T02:16:07.370Z,3.20
2022-10-09T02:18:41.016Z,3.05
2022-10-09T02:21:32.249Z,3.58
2022-10-09T02:23:59.632Z,3.28
2022-10-09T02:26:27.205Z,3.28
2022-10-09T02:28:54.304Z,3.88
2022-10-09T02:31:30.024Z,3.47
2022-10-09T02:34:06.157Z,3.45
2022-10-09T02:36:33.508Z,3.55
2022-10-09T02:39:00.319Z,3.10
2022-10-09T02:41:27.595Z,3.05
2022-10-09T02:43:54.410Z,3.22
2022-10-09T02:46:21.676Z,3.00
2022-10-09T02:48:48.468Z,3.10
2022-10-09T02:51:15.497Z,3.08
2022-10-09T02:53:42.283Z,3.13
2022-10-09T02:56:09.016Z,3.05
2022-10-09T02:58:35.985Z,3.50
2022-10-09T03:01:03.419Z,3.70
2022-10-09T03:03:30.244Z,3.35
2022-10-09T03:06:17.677Z,2.88
2022-10-09T03:08:46.709Z,3.53
2022-10-09T03:11:14.542Z,3.60
2022-10-09T03:13:41.726Z,4.28
2022-10-09T03:16:11.591Z,3.88
2022-10-09T03:18:38.581Z,3.80
2022-10-09T03:21:07.103Z,3.70
2022-10-09T03:23:34.123Z,3.83
2022-10-09T03:26:07.578Z,3.58
2022-10-09T03:28:38.930Z,3.60
2022-10-09T03:31:06.286Z,3.20
2022-10-09T03:33:34.116Z,2.90
2022-10-09T03:36:01.259Z,3.33
2022-10-09T03:38:28.177Z,3.70
2022-10-09T03:40:54.930Z,3.63
2022-10-09T03:43:21.611Z,3.40
2022-10-09T03:45:48.348Z,3.53
2022-10-09T03:48:15.101Z,3.58
2022-10-09T03:50:42.449Z,3.15
2022-10-09T03:53:10.790Z,3.08
2022-10-09T03:55:38.151Z,2.90
2022-10-09T03:58:05.173Z,2.75
2022-10-09T04:00:32.275Z,3.20
2022-10-09T04:02:59.181Z,2.83
2022-10-09T04:05:25.981Z,3.33
2022-10-09T04:07:52.787Z,3.05
2022-10-09T04:10:19.585Z,3.15
2022-10-09T04:12:46.497Z,2.90
2022-10-09T04:15:13.697Z,3.40
2022-10-09T04:17:40.386Z,2.83
2022-10-09T04:20:07.662Z,2.97
2022-10-09T04:22:34.553Z,3.17
2022-10-09T04:25:01.276Z,3.03
2022-10-09T04:27:28.037Z,2.78
2022-10-09T04:29:54.750Z,2.95
2022-10-09T04:32:21.438Z,2.88
2022-10-09T04:34:48.277Z,3.45
2022-10-09T04:37:15.119Z,3.05
2022-10-09T04:39:41.795Z,2.85
2022-10-09T04:42:08.593Z,3.63
2022-10-09T04:44:35.341Z,3.00
2022-10-09T04:47:02.027Z,3.22
2022-10-09T04:49:28.736Z,2.88
2022-10-09T04:51:55.438Z,3.22
2022-10-09T04:54:22.109Z,2.60
2022-10-09T04:56:48.778Z,3.03
2022-10-09T04:59:15.490Z,3.38
2022-10-09T05:01:42.314Z,3.15
2022-10-09T05:04:09.128Z,3.42
2022-10-09T05:06:35.969Z,2.83
2022-10-09T05:09:03.234Z,2.90
2022-10-09T05:11:29.997Z,3.38
2022-10-09T05:13:57.893Z,3.15
2022-10-09T05:16:27.211Z,3.20
2022-10-09T05:18:56.731Z,3.25
2022-10-09T05:21:24.425Z,3.15
2022-10-09T05:23:52.665Z,3.30
2022-10-09T05:26:21.200Z,3.55
2022-10-09T05:28:48.520Z,3.58
2022-10-09T05:31:24.867Z,3.33
2022-10-09T05:33:51.738Z,3.65
2022-10-09T05:36:19.065Z,3.78
2022-10-09T05:38:46.237Z,3.28
2022-10-09T05:41:15.141Z,3.80
2022-10-09T05:43:45.329Z,3.10
2022-10-09T05:46:25.232Z,3.53
2022-10-09T05:48:57.016Z,3.75
2022-10-09T05:51:29.086Z,3.80
2022-10-09T05:53:56.781Z,3.47
2022-10-09T05:56:25.949Z,3.40
2022-10-09T05:58:57.613Z,3.00
2022-10-09T06:01:26.936Z,3.95
2022-10-09T06:03:58.219Z,3.58
2022-10-09T06:06:26.777Z,3.28
2022-10-09T06:08:54.032Z,3.25
2022-10-09T06:11:28.289Z,3.42
2022-10-09T06:13:55.966Z,4.03
2022-10-09T06:16:25.232Z,3.38
2022-10-09T06:18:53.366Z,3.30
2022-10-09T06:21:20.297Z,3.20
2022-10-09T06:23:51.706Z,3.08
2022-10-09T06:26:19.384Z,3.20
2022-10-09T06:28:46.602Z,3.05
2022-10-09T06:31:21.733Z,3.50
2022-10-09T06:33:50.223Z,3.08
2022-10-09T06:36:28.412Z,3.22
2022-10-09T06:38:55.277Z,3.15
2022-10-09T06:41:23.934Z,3.30
2022-10-09T06:43:53.677Z,3.50
2022-10-09T06:46:21.993Z,3.63
2022-10-09T06:48:49.037Z,3.10
2022-10-09T06:51:18.866Z,3.40
2022-10-09T06:53:47.695Z,3.47
2022-10-09T06:56:15.168Z,4.00
2022-10-09T06:58:42.076Z,4.30
2022-10-09T07:01:14.907Z,3.30
2022-10-09T07:03:43.921Z,3.70
2022-10-09T07:06:16.183Z,3.40
2022-10-09T07:08:45.072Z,2.92
2022-10-09T07:11:15.911Z,3.72
2022-10-09T07:13:43.526Z,3.75
2022-10-09T07:16:11.155Z,3.13
2022-10-09T07:18:38.649Z,3.40
2022-10-09T07:21:07.856Z,3.65
2022-10-09T07:23:35.571Z,3.33
2022-10-09T07:26:02.772Z,3.63
2022-10-09T07:28:30.274Z,3.60
2022-10-09T07:30:57.465Z,3.45
2022-10-09T07:33:24.318Z,3.50
2022-10-09T07:35:58.520Z,3.50
2022-10-09T07:38:26.012Z,3.15
2022-10-09T07:40:53.649Z,3.00
2022-10-09T07:43:21.534Z,3.03
2022-10-09T07:45:48.428Z,3.10
2022-10-09T07:48:15.317Z,2.90
2022-10-09T07:50:42.055Z,3.03
2022-10-09T07:53:08.969Z,2.85
2022-10-09T07:55:36.459Z,2.78
2022-10-09T07:58:03.256Z,2.80
2022-10-09T08:00:30.120Z,2.58
2022-10-09T08:02:57.010Z,2.38
2022-10-09T08:05:23.846Z,2.70
2022-10-09T08:07:50.546Z,2.65
2022-10-09T08:10:17.682Z,2.70
2022-10-09T08:12:44.365Z,3.00
2022-10-09T08:15:11.377Z,2.72
2022-10-09T08:17:38.092Z,2.60
2022-10-09T08:20:05.980Z,2.65
2022-10-09T08:22:32.956Z,2.65
2022-10-09T08:24:59.675Z,2.22
2022-10-09T08:27:26.344Z,2.63
2022-10-09T08:29:53.093Z,2.90
2022-10-09T08:32:19.797Z,2.50
2022-10-09T08:34:47.273Z,2.92
2022-10-09T08:37:14.004Z,2.85
2022-10-09T08:39:40.700Z,2.85
2022-10-09T08:42:07.513Z,2.78
2022-10-09T08:44:40.752Z,2.50
2022-10-09T08:47:16.767Z,2.70
2022-10-09T08:49:56.545Z,2.63
2022-10-09T08:52:29.055Z,3.20
2022-10-09T08:54:58.252Z,2.50
2022-10-09T08:57:29.257Z,2.20
2022-10-09T08:59:56.662Z,2.65
2022-10-09T09:03:09.157Z,2.60
2022-10-09T09:05:56.022Z,2.85
2022-10-09T09:09:04.097Z,2.67
2022-10-09T09:12:04.611Z,3.00
2022-10-09T09:14:50.302Z,2.72
2022-10-09T09:17:46.859Z,2.85
2022-10-09T09:20:30.302Z,2.30
2022-10-09T09:22:58.959Z,2.35
2022-10-09T09:25:28.537Z,2.70
2022-10-09T09:28:02.276Z,2.53
2022-10-09T09:30:32.942Z,2.63
2022-10-09T09:33:11.699Z,2.10
2022-10-09T09:35:49.673Z,2.47
2022-10-09T09:38:16.749Z,2.22
2022-10-09T09:40:47.310Z,3.10
2022-10-09T09:43:22.830Z,2.10
2022-10-09T09:45:53.421Z,2.40
2022-10-09T09:48:36.173Z,2.25
2022-10-09T09:51:26.763Z,2.00
2022-10-09T09:53:54.114Z,2.05
2022-10-09T09:56:21.006Z,2.20
2022-10-09T09:58:51.088Z,2.35
2022-10-09T10:01:25.387Z,2.15
2022-10-09T10:03:54.397Z,2.20
2022-10-09T10:06:40.958Z,1.85
2022-10-09T10:09:16.069Z,2.30
2022-10-09T10:11:56.930Z,2.17
2022-10-09T10:14:27.809Z,1.85
2022-10-09T10:16:56.723Z,1.80
2022-10-09T10:19:26.894Z,2.30
2022-10-09T10:22:05.690Z,1.90
2022-10-09T10:24:43.849Z,1.70
2022-10-09T10:27:35.491Z,1.90
2022-10-09T10:30:57.719Z,1.92
2022-10-09T10:33:29.869Z,1.75
2022-10-09T10:35:58.320Z,1.73
2022-10-09T10:38:31.251Z,1.90
2022-10-09T10:41:21.590Z,1.90
2022-10-09T10:43:48.924Z,2.08
2022-10-09T10:46:18.830Z,2.00
2022-10-09T10:48:47.203Z,1.60
2022-10-09T10:51:29.154Z,1.90
2022-10-09T10:54:04.171Z,1.50
2022-10-09T10:56:58.542Z,1.98
2022-10-09T10:59:39.493Z,1.67
2022-10-09T11:02:15.136Z,2.10
2022-10-09T11:05:19.902Z,1.77
2022-10-09T11:08:27.791Z,1.60
2022-10-09T11:11:19.917Z,1.60
2022-10-09T11:14:09.683Z,1.55
2022-10-09T11:16:58.246Z,1.50
2022-10-09T11:19:33.974Z,1.92
2022-10-09T11:22:21.570Z,1.70
2022-10-09T11:25:11.995Z,1.30
2022-10-09T11:27:45.708Z,1.67
2022-10-09T11:30:17.340Z,1.83
2022-10-09T11:32:51.453Z,1.42
2022-10-09T11:35:23.875Z,1.60
2022-10-09T11:38:26.850Z,1.55
2022-10-09T11:40:55.207Z,1.60
2022-10-09T11:43:25.036Z,1.58
2022-10-09T11:45:58.451Z,1.60
2022-10-09T11:48:53.711Z,1.27
2022-10-09T11:51:32.182Z,1.42
2022-10-09T11:53:59.086Z,1.60
2022-10-09T11:56:30.580Z,1.63
2022-10-09T11:59:05.809Z,1.27
2022-10-09T12:01:40.798Z,1.40
2022-10-09T12:04:12.752Z,1.42
2022-10-09T12:06:54.360Z,1.33
2022-10-09T12:09:30.196Z,1.55
2022-10-09T12:11:59.709Z,1.20
2022-10-09T12:14:28.607Z,1.40
2022-10-09T12:16:56.250Z,1.48
2022-10-09T12:19:43.252Z,1.50
2022-10-09T12:22:14.559Z,1.50
2022-10-09T12:24:42.507Z,1.33
2022-10-09T12:27:25.192Z,1.65
2022-10-09T12:29:58.375Z,1.33
2022-10-09T12:32:37.752Z,1.42
2022-10-09T12:35:26.527Z,1.27
2022-10-09T12:37:53.528Z,1.50
2022-10-09T12:40:28.201Z,1.35
2022-10-09T12:45:33.857Z,1.20
2022-10-09T12:48:10.130Z,1.50
2022-10-09T12:50:36.774Z,1.38
2022-10-09T12:53:13.655Z,1.20
2022-10-09T12:55:50.810Z,1.70
2022-10-09T12:58:23.691Z,1.40
2022-10-09T13:00:53.541Z,1.38
2022-10-09T13:03:39.471Z,1.50
2022-10-09T13:06:13.393Z,1.27
2022-10-09T13:08:41.297Z,2.17
2022-10-09T13:11:16.366Z,1.20
2022-10-09T13:13:43.154Z,1.27
2022-10-09T13:16:10.622Z,1.30
2022-10-09T13:18:38.456Z,1.55
2022-10-09T13:21:17.683Z,1.20
2022-10-09T13:23:44.350Z,1.20
2022-10-09T13:26:25.186Z,1.20
2022-10-09T13:28:52.105Z,1.40
2022-10-09T13:31:19.150Z,1.00
2022-10-09T13:33:46.152Z,1.73
2022-10-09T13:36:13.878Z,1.20
2022-10-09T13:38:41.090Z,1.35
2022-10-09T13:41:09.838Z,1.08
2022-10-09T13:43:36.471Z,1.20
2022-10-09T13:46:03.195Z,1.30
2022-10-09T13:48:31.183Z,1.40
2022-10-09T13:51:00.631Z,1.25
2022-10-09T13:53:27.862Z,1.13
2022-10-09T13:56:00.019Z,1.20
2022-10-09T13:58:27.926Z,1.20
2022-10-09T14:00:55.037Z,1.33
2022-10-09T14:03:22.383Z,1.50
2022-10-09T14:05:49.060Z,1.30
2022-10-09T14:08:15.829Z,1.17
2022-10-09T14:10:43.404Z,1.25
2022-10-09T14:13:14.443Z,1.10
2022-10-09T14:15:42.017Z,0.95
2022-10-09T14:18:09.362Z,1.17
2022-10-09T14:20:36.152Z,1.30
2022-10-09T14:23:02.940Z,1.15
2022-10-09T14:25:30.063Z,1.30
2022-10-09T14:27:56.768Z,1.42
2022-10-09T14:30:23.408Z,1.30
2022-10-09T14:32:51.252Z,1.52
2022-10-09T14:35:21.407Z,1.00
2022-10-09T14:37:48.423Z,1.23
2022-10-09T14:40:15.553Z,1.17
2022-10-09T14:42:42.258Z,1.38
2022-10-09T14:45:09.936Z,1.10
2022-10-09T14:47:36.672Z,1.13
2022-10-09T14:50:03.601Z,1.30
2022-10-09T14:52:30.411Z,1.20
2022-10-09T14:54:57.075Z,1.17
2022-10-09T14:57:23.755Z,1.05
2022-10-09T14:59:50.400Z,1.27
2022-10-09T15:02:17.696Z,1.20
2022-10-09T15:04:44.375Z,1.15
2022-10-09T15:07:11.045Z,1.55
2022-10-09T15:09:38.213Z,1.08
2022-10-09T15:12:05.049Z,1.30
2022-10-09T15:14:31.722Z,1.30
2022-10-09T15:16:58.444Z,1.42
2022-10-09T15:19:25.118Z,1.25
2022-10-09T15:21:51.748Z,1.30
2022-10-09T15:24:18.417Z,1.50
2022-10-09T15:26:45.163Z,1.92
2022-10-09T15:29:12.193Z,1.33
2022-10-09T15:31:40.536Z,1.40
2022-10-09T15:34:07.998Z,1.40
2022-10-09T15:36:36.928Z,1.35
2022-10-09T15:39:07.096Z,1.70
2022-10-09T15:41:36.803Z,1.40
2022-10-09T15:44:08.880Z,1.60
2022-10-09T15:46:35.583Z,1.58
2022-10-09T15:49:02.239Z,1.70
2022-10-09T15:51:30.014Z,1.60
2022-10-09T15:54:00.838Z,1.30
2022-10-09T15:56:28.323Z,1.55
2022-10-09T15:58:56.079Z,1.55
2022-10-09T16:01:23.186Z,1.40
2022-10-09T16:03:50.201Z,1.30
2022-10-09T16:06:19.162Z,1.25
2022-10-09T16:08:46.326Z,1.50
2022-10-09T16:11:14.509Z,1.33
2022-10-09T16:13:43.577Z,1.63
2022-10-09T16:16:21.050Z,1.60
2022-10-09T16:18:48.325Z,1.55
2022-10-09T16:21:18.436Z,1.55
2022-10-09T16:23:45.572Z,1.27
2022-10-09T16:26:14.641Z,1.65
2022-10-09T16:28:41.597Z,1.67
2022-10-09T16:31:08.358Z,1.45
2022-10-09T16:33:35.374Z,1.67
2022-10-09T16:36:10.203Z,1.55
2022-10-09T16:38:37.665Z,1.77
2022-10-09T16:41:11.417Z,1.50
2022-10-09T16:43:38.970Z,1.45
2022-10-09T16:46:12.350Z,1.88
2022-10-09T16:48:39.099Z,1.98
2022-10-09T16:51:13.725Z,2.10
2022-10-09T16:53:41.075Z,1.83
2022-10-09T16:56:13.130Z,1.70
2022-10-09T16:58:40.615Z,1.70
2022-10-09T17:01:09.837Z,2.08
2022-10-09T17:03:40.404Z,1.85
2022-10-09T17:06:15.272Z,1.65
2022-10-09T17:11:10.290Z,1.98
2022-10-09T17:13:37.261Z,1.90
2022-10-09T17:16:08.343Z,1.90
2022-10-09T17:18:36.041Z,2.03
2022-10-09T17:21:08.026Z,1.98
2022-10-09T17:23:34.955Z,1.88
2022-10-09T17:26:06.696Z,2.00
2022-10-09T17:28:34.489Z,2.00
2022-10-09T17:31:05.930Z,2.00
2022-10-09T17:33:33.653Z,2.25
2022-10-09T17:36:00.545Z,2.00
2022-10-09T17:38:27.377Z,2.30
2022-10-09T17:40:54.146Z,2.13
2022-10-09T17:43:21.043Z,2.20
2022-10-09T17:45:49.028Z,2.60
2022-10-09T17:48:15.890Z,2.05
2022-10-09T17:50:54.036Z,2.50
2022-10-09T17:53:22.724Z,2.53
2022-10-09T17:55:50.457Z,2.78
2022-10-09T17:58:17.928Z,2.92
2022-10-09T18:00:45.171Z,2.55
2022-10-09T18:03:12.413Z,2.40
2022-10-09T18:05:43.648Z,2.40
2022-10-09T18:08:10.635Z,2.42
2022-10-09T18:10:37.655Z,2.60
2022-10-09T18:13:05.563Z,2.97
2022-10-09T18:15:43.063Z,2.53
2022-10-09T18:18:10.930Z,2.88
2022-10-09T18:20:38.846Z,2.83
2022-10-09T18:23:07.398Z,2.90
2022-10-09T18:25:34.453Z,2.97
2022-10-09T18:28:01.176Z,2.72
2022-10-09T18:30:27.855Z,3.03
2022-10-09T18:32:54.553Z,3.00
2022-10-09T18:35:21.221Z,3.00
2022-10-09T18:37:47.860Z,2.53
2022-10-09T18:40:14.610Z,2.75
2022-10-09T18:42:41.488Z,2.60
2022-10-09T18:45:10.114Z,2.67
2022-10-09T18:47:36.807Z,3.00
2022-10-09T18:50:07.311Z,2.38
2022-10-09T18:52:34.384Z,2.90
2022-10-09T18:55:01.340Z,2.67
2022-10-09T18:57:28.898Z,2.53
2022-10-09T18:59:56.316Z,2.58
2022-10-09T19:02:26.365Z,3.17
2022-10-09T19:05:02.654Z,2.83
2022-10-09T19:07:29.423Z,2.70
2022-10-09T19:09:57.484Z,2.80
2022-10-09T19:12:25.578Z,2.83
2022-10-09T19:14:52.401Z,3.15
2022-10-09T19:17:19.248Z,2.45
2022-10-09T19:19:45.908Z,3.20
2022-10-09T19:22:16.614Z,2.65
2022-10-09T19:24:44.287Z,3.10
2022-10-09T19:27:11.786Z,2.83
2022-10-09T19:29:38.634Z,2.85
2022-10-09T19:32:05.430Z,3.20
2022-10-09T19:34:32.146Z,3.55
2022-10-09T19:36:58.881Z,3.00
2022-10-09T19:39:25.571Z,2.90
2022-10-09T19:41:52.363Z,2.92
2022-10-09T19:44:19.175Z,2.80
2022-10-09T19:46:45.890Z,3.13
2022-10-09T19:49:12.727Z,2.88
2022-10-09T19:51:39.557Z,3.10
2022-10-09T19:54:07.855Z,3.10
2022-10-09T19:56:35.754Z,3.08
2022-10-09T19:59:04.939Z,3.17
2022-10-09T20:01:33.103Z,3.17
2022-10-09T20:04:05.413Z,3.60
2022-10-09T20:06:32.259Z,3.00
2022-10-09T20:08:58.902Z,3.00
2022-10-09T20:11:26.402Z,3.08
2022-10-09T20:13:56.279Z,2.90
2022-10-09T20:16:24.105Z,2.90
2022-10-09T20:18:50.816Z,3.25
2022-10-09T20:21:18.024Z,3.25
2022-10-09T20:23:45.065Z,3.05
2022-10-09T20:26:16.781Z,2.70
2022-10-09T20:28:43.953Z,2.65
2022-10-09T20:31:14.753Z,3.17
2022-10-09T20:33:42.501Z,3.00
2022-10-09T20:36:21.795Z,3.17
2022-10-09T20:38:48.671Z,3.13
2022-10-09T20:41:15.417Z,3.20
2022-10-09T20:43:42.182Z,2.97
2022-10-09T20:46:12.316Z,2.67
2022-10-09T20:48:39.913Z,2.70
2022-10-09T20:51:06.844Z,2.60
2022-10-09T20:53:33.838Z,3.03
2022-10-09T20:56:02.275Z,3.20
2022-10-09T20:58:29.277Z,2.83
2022-10-09T21:00:56.195Z,3.10
2022-10-09T21:03:22.911Z,3.22
2022-10-09T21:05:49.541Z,3.00
2022-10-09T21:08:16.653Z,3.13
2022-10-09T21:10:44.840Z,3.22
2022-10-09T21:13:11.603Z,3.70
2022-10-09T21:15:45.979Z,3.80
2022-10-09T21:18:13.375Z,3.53
2022-10-09T21:20:41.070Z,3.13
2022-10-09T21:23:09.881Z,3.75
2022-10-09T21:25:37.208Z,3.47
2022-10-09T21:28:04.858Z,3.60
2022-10-09T21:30:40.474Z,3.38
2022-10-09T21:33:08.854Z,3.90
2022-10-09T21:35:39.969Z,3.92
2022-10-09T21:38:06.750Z,4.00
2022-10-09T21:40:33.418Z,3.85
2022-10-09T21:43:00.111Z,3.80
2022-10-09T21:45:26.800Z,3.60
2022-10-09T21:47:53.502Z,3.63
2022-10-09T21:50:21.238Z,3.33
2022-10-09T21:52:48.988Z,3.25
2022-10-09T21:55:15.994Z,3.50
2022-10-09T21:57:45.129Z,3.40
2022-10-09T22:00:12.431Z,3.38
2022-10-09T22:02:39.096Z,3.53
2022-10-09T22:05:06.511Z,3.50
2022-10-09T22:07:33.396Z,3.40
2022-10-09T22:10:00.155Z,3.40
2022-10-09T22:12:26.867Z,3.88
2022-10-09T22:14:53.525Z,3.85
2022-10-09T22:17:20.218Z,3.65
2022-10-09T22:19:46.902Z,3.95
2022-10-09T22:22:13.691Z,4.57
2022-10-09T22:24:40.339Z,4.20
2022-10-09T22:27:07.356Z,4.53
2022-10-09T22:29:34.079Z,4.25
2022-10-09T22:32:00.732Z,4.43
2022-10-09T22:34:27.598Z,4.72
2022-10-09T22:36:54.231Z,4.18
2022-10-09T22:39:21.063Z,3.95
2022-10-09T22:41:47.720Z,4.38
2022-10-09T22:44:14.389Z,4.65
2022-10-09T22:46:43.695Z,4.50
2022-10-09T22:49:15.049Z,5.00
2022-10-09T22:51:42.329Z,4.18
2022-10-09T22:54:09.027Z,5.15
2022-10-09T22:56:41.498Z,5.18
2022-10-09T22:59:09.481Z,5.10
2022-10-09T23:01:45.479Z,4.90
2022-10-09T23:04:13.632Z,4.88
2022-10-09T23:06:41.603Z,4.40
2022-10-09T23:09:11.388Z,4.65
2022-10-09T23:11:38.046Z,4.82
2022-10-09T23:14:05.101Z,4.35
2022-10-09T23:16:32.250Z,4.47
2022-10-09T23:19:04.134Z,4.75
2022-10-09T23:21:32.296Z,4.10
2022-10-09T23:23:59.071Z,4.93
2022-10-09T23:26:28.554Z,4.78
2022-10-09T23:29:08.583Z,4.80
2022-10-09T23:31:35.947Z,4.63
2022-10-09T23:34:03.979Z,4.30
2022-10-09T23:36:30.627Z,4.13
2022-10-09T23:38:57.867Z,4.38
2022-10-09T23:41:26.476Z,4.43
2022-10-09T23:43:53.550Z,3.90
2022-10-09T23:46:22.869Z,4.28
2022-10-09T23:48:50.119Z,4.20
2022-10-09T23:51:17.737Z,4.53
2022-10-09T23:53:44.434Z,4.40
2022-10-09T23:56:34.935Z,4.25
2022-10-09T23:59:02.927Z,3.83
